Time;durP1;ratioP1;P1;durP2;ratioP2;P2;SDS_P1;SDS_P2;PMS_P1;PMS_P2;Temp;Humidity;BMP_temperature;BMP_pressure;BME280_temperature;BME280_humidity;BME280_pressure;Samples;Min_cycle;Max_cycle;Signal;HPM_P1;HPM_P2
2023/09/28 00:00:38;;;;;;;7.03;3.15;;;;;;;14.85;61.95;95088.66;5089695;28;20067;-73
2023/09/28 00:03:22;;;;;;;5.18;2.90;;;;;;;14.84;62.20;95087.03;5074817;28;20401;-73
2023/09/28 00:05:47;;;;;;;5.60;3.15;;;;;;;14.71;62.14;95067.28;5092021;28;20040;-73
2023/09/28 00:08:32;;;;;;;4.07;2.85;;;;;;;14.79;62.02;95084.00;5088451;28;20051;-73
2023/09/28 00:14:00;;;;;;;6.93;3.13;;;;;;;14.61;62.01;95071.72;5091394;28;20070;-73
2023/09/28 00:16:25;;;;;;;4.00;2.78;;;;;;;14.61;62.40;95071.72;5088512;28;20035;-71
2023/09/28 00:18:51;;;;;;;5.70;2.80;;;;;;;14.46;62.78;95067.94;5091243;28;20028;-71
2023/09/28 00:21:16;;;;;;;6.10;3.30;;;;;;;14.56;62.53;95058.25;5062286;28;20021;-71
2023/09/28 00:23:41;;;;;;;5.35;2.90;;;;;;;14.55;62.66;95067.09;5070990;28;20461;-71
2023/09/28 00:28:51;;;;;;;6.18;3.15;;;;;;;14.13;63.09;95004.81;5091214;28;20413;-71
2023/09/28 00:31:35;;;;;;;6.50;3.17;;;;;;;14.33;62.48;95028.22;5089846;28;20024;-71
2023/09/28 00:34:00;;;;;;;6.07;3.20;;;;;;;14.19;62.82;95019.06;5091410;28;20032;-71
2023/09/28 00:36:26;;;;;;;7.00;3.35;;;;;;;14.36;62.89;95035.78;5085459;28;20035;-71
2023/09/28 00:38:51;;;;;;;5.53;3.47;;;;;;;14.46;62.65;95033.97;5070435;28;20035;-72
2023/09/28 00:41:17;;;;;;;6.95;3.15;;;;;;;14.43;63.09;95036.84;5089786;28;20492;-71
2023/09/28 00:44:01;;;;;;;5.60;3.05;;;;;;;14.28;63.61;95039.09;5088170;28;20028;-71
2023/09/28 00:46:26;;;;;;;11.40;3.80;;;;;;;14.21;63.61;95028.44;5089390;28;20036;-71
2023/09/28 00:49:02;;;;;;;6.57;3.17;;;;;;;14.35;63.52;95034.13;5090737;28;20028;-71
2023/09/28 00:51:28;;;;;;;4.80;3.10;;;;;;;14.33;63.29;95033.47;5089780;28;20020;-71
2023/09/28 00:53:54;;;;;;;6.22;3.28;;;;;;;14.40;63.65;95047.56;5087640;28;20081;-71
2023/09/28 00:56:21;;;;;;;5.28;3.50;;;;;;;14.43;63.96;95049.91;5072860;28;20166;-71
2023/09/28 00:58:48;;;;;;;6.22;3.38;;;;;;;14.22;64.29;95050.13;5086083;28;20031;-71
2023/09/28 01:01:52;;;;;;;5.50;3.30;;;;;;;14.14;64.61;95048.22;5072960;28;20044;-72
2023/09/28 01:04:36;;;;;;;4.97;3.08;;;;;;;14.12;64.76;95050.16;5069308;28;20127;-71
2023/09/28 01:07:02;;;;;;;6.13;3.40;;;;;;;14.31;63.95;95049.28;5071335;28;20097;-72
2023/09/28 01:09:28;;;;;;;5.85;3.40;;;;;;;14.37;64.68;95058.31;5072931;28;20252;-72
2023/09/28 01:11:53;;;;;;;6.63;3.80;;;;;;;14.13;64.89;95043.16;5078102;28;20039;-71
2023/09/28 01:14:38;;;;;;;6.32;3.45;;;;;;;14.32;64.72;95056.16;5068823;28;20040;-71
2023/09/28 01:17:04;;;;;;;5.00;3.55;;;;;;;14.26;64.53;95047.09;5070489;28;20044;-71
2023/09/28 01:19:29;;;;;;;6.88;3.10;;;;;;;14.25;64.58;95061.13;5074343;28;20482;-71
2023/09/28 01:24:39;;;;;;;6.65;2.97;;;;;;;14.41;64.33;95044.00;5089685;28;20043;-71
2023/09/28 01:27:06;;;;;;;4.03;3.30;;;;;;;14.25;64.41;95034.16;5090640;28;20028;-71
2023/09/28 01:29:31;;;;;;;5.25;3.20;;;;;;;14.31;64.11;95042.25;5068465;28;20543;-72
2023/09/28 01:31:57;;;;;;;8.13;3.30;;;;;;;14.16;64.33;95033.25;5086192;28;20036;-71
2023/09/28 01:34:41;;;;;;;6.20;3.10;;;;;;;14.21;64.39;95033.66;5094583;28;20489;-72
2023/09/28 01:39:51;;;;;;;4.63;3.58;;;;;;;14.08;64.92;95043.59;5078052;28;20039;-71
2023/09/28 01:42:35;;;;;;;6.53;3.58;;;;;;;14.19;64.60;95046.03;5093121;28;20024;-72
2023/09/28 01:45:01;;;;;;;7.28;3.53;;;;;;;14.15;64.78;95051.66;5093195;28;20036;-71
2023/09/28 01:47:26;;;;;;;6.03;3.40;;;;;;;14.04;65.11;95047.44;5072400;28;20024;-71
2023/09/28 01:49:52;;;;;;;5.88;3.38;;;;;;;14.01;65.65;95047.72;5065390;28;20413;-71
2023/09/28 01:52:17;;;;;;;6.72;3.40;;;;;;;13.93;65.48;95048.47;5085838;28;20403;-71
2023/09/28 01:55:01;;;;;;;5.07;3.53;;;;;;;14.06;65.22;95050.72;5073991;28;20033;-71
2023/09/28 01:57:45;;;;;;;4.55;2.88;;;;;;;14.11;65.60;95053.75;5072505;28;20030;-71
2023/09/28 02:00:15;;;;;;;7.88;3.22;;;;;;;13.90;65.81;95048.75;5072649;28;20127;-71
2023/09/28 02:05:44;;;;;;;6.75;3.65;;;;;;;13.86;66.10;95055.19;5091430;28;20094;-71
2023/09/28 02:13:56;;;;;;;5.18;3.33;;;;;;;13.88;66.33;95044.63;5087956;28;20082;-71
2023/09/28 02:16:22;;;;;;;6.65;3.50;;;;;;;13.83;65.80;95043.25;5090505;28;20028;-71
2023/09/28 02:19:06;;;;;;;7.70;3.45;;;;;;;13.46;66.59;95031.94;5092422;28;20024;-72
2023/09/28 02:21:51;;;;;;;7.22;3.35;;;;;;;13.58;67.17;95054.28;5093709;28;20052;-72
2023/09/28 02:27:19;;;;;;;6.55;3.63;;;;;;;13.55;67.14;95065.00;5090334;28;20130;-72
2023/09/28 02:29:45;;;;;;;5.28;3.85;;;;;;;13.19;68.21;95064.72;5092404;28;20042;-71
2023/09/28 02:32:13;;;;;;;7.88;3.70;;;;;;;13.23;68.53;95062.66;5071187;28;20033;-72
2023/09/28 02:34:38;;;;;;;6.30;3.45;;;;;;;12.79;69.25;95064.78;5054882;28;20032;-72
2023/09/28 02:37:04;;;;;;;7.60;3.80;;;;;;;13.04;68.64;95066.06;5068818;28;20036;-71
2023/09/28 02:39:29;;;;;;;6.55;3.63;;;;;;;13.00;68.78;95067.31;5076309;28;20086;-71
2023/09/28 02:41:55;;;;;;;5.47;3.70;;;;;;;13.15;69.15;95066.78;5085974;28;20028;-72
2023/09/28 02:44:21;;;;;;;5.85;4.10;;;;;;;13.09;69.38;95066.47;5089651;28;20024;-72
2023/09/28 02:46:47;;;;;;;5.47;3.40;;;;;;;13.09;69.17;95069.09;5075592;28;20035;-72
2023/09/28 02:49:12;;;;;;;5.95;3.80;;;;;;;13.03;70.04;95070.44;5088935;28;20035;-71
2023/09/28 02:51:38;;;;;;;8.95;3.53;;;;;;;13.02;69.48;95071.44;5083554;28;20039;-72
2023/09/28 02:54:03;;;;;;;6.18;3.20;;;;;;;12.99;69.13;95074.31;5089810;28;20032;-72
2023/09/28 02:56:50;;;;;;;5.30;3.20;;;;;;;12.95;69.13;95083.34;5091777;28;20024;-72
2023/09/28 02:59:16;;;;;;;6.85;3.42;;;;;;;12.89;69.45;95083.88;5091403;28;20032;-71
2023/09/28 03:01:42;;;;;;;6.57;3.13;;;;;;;12.84;68.87;95067.81;5065316;28;20528;-72
2023/09/28 03:04:07;;;;;;;5.85;3.53;;;;;;;13.02;68.48;95083.66;5091184;28;20032;-72
2023/09/28 03:06:37;;;;;;;6.32;3.25;;;;;;;13.04;67.92;95079.94;5091166;28;20089;-72
2023/09/28 03:09:21;;;;;;;6.07;3.38;;;;;;;13.10;67.59;95082.00;5083250;28;20486;-72
2023/09/28 03:11:46;;;;;;;4.35;3.70;;;;;;;13.11;67.59;95077.59;5087354;28;20042;-72
2023/09/28 03:14:12;;;;;;;8.70;3.75;;;;;;;13.08;68.04;95080.50;5073299;28;20028;-72
2023/09/28 03:16:39;;;;;;;6.35;3.00;;;;;;;13.14;67.06;95082.56;5054431;28;20032;-71
2023/09/28 03:19:06;;;;;;;7.28;3.42;;;;;;;13.21;66.75;95080.25;5079524;28;20036;-72
2023/09/28 03:21:32;;;;;;;7.35;3.13;;;;;;;13.05;67.08;95068.53;5073464;28;20020;-72
2023/09/28 03:27:00;;;;;;;10.82;3.47;;;;;;;13.35;66.12;95090.28;5090410;28;20039;-72
2023/09/28 03:29:25;;;;;;;7.88;3.10;;;;;;;13.21;66.30;95068.00;5092438;28;20401;-72
2023/09/28 03:31:51;;;;;;;5.82;3.10;;;;;;;13.35;65.99;95080.69;5091936;28;20521;-72
2023/09/28 03:34:16;;;;;;;3.85;2.70;;;;;;;13.27;66.38;95080.53;5088130;28;20081;-72
2023/09/28 03:36:42;;;;;;;5.82;3.10;;;;;;;13.53;65.40;95074.75;5091907;28;20028;-72
2023/09/28 03:39:08;;;;;;;5.38;3.00;;;;;;;13.35;65.83;95077.25;5092387;28;20504;-71
2023/09/28 03:41:34;;;;;;;6.88;3.30;;;;;;;13.26;65.81;95078.06;5084767;28;20482;-72
2023/09/28 03:44:18;;;;;;;4.55;2.70;;;;;;;13.22;66.13;95077.47;5077562;28;20031;-72
2023/09/28 03:46:43;;;;;;;6.03;2.92;;;;;;;13.25;66.24;95081.59;5088828;28;20528;-72
2023/09/28 03:52:11;;;;;;;7.68;3.00;;;;;;;13.22;66.36;95084.47;5075089;28;20425;-72
2023/09/28 03:54:37;;;;;;;4.55;2.88;;;;;;;13.14;66.44;95080.75;5085136;28;20033;-72
2023/09/28 04:00:12;;;;;;;5.75;2.85;;;;;;;13.14;65.74;95074.72;5069781;28;20429;-72
2023/09/28 04:02:38;;;;;;;6.95;3.03;;;;;;;13.21;65.30;95075.84;5069468;28;20024;-72
2023/09/28 04:05:05;;;;;;;4.55;3.03;;;;;;;13.27;65.28;95082.31;5056770;28;20043;-72
2023/09/28 04:07:30;;;;;;;4.68;3.17;;;;;;;13.31;64.85;95070.63;5087427;28;20029;-72
2023/09/28 04:09:56;;;;;;;11.77;2.88;;;;;;;13.25;64.74;95065.94;5070074;28;20102;-71
2023/09/28 04:12:21;;;;;;;3.20;2.42;;;;;;;13.31;64.38;95079.28;5070074;28;20505;-71
2023/09/28 04:14:47;;;;;;;4.25;2.63;;;;;;;13.33;65.55;95076.56;5085983;28;20452;-72
2023/09/28 04:17:34;;;;;;;3.95;2.53;;;;;;;13.26;64.31;95084.13;5090318;28;20043;-72
2023/09/28 04:22:43;;;;;;;6.15;2.80;;;;;;;13.28;64.08;95081.34;5080488;28;20042;-72
2023/09/28 04:25:10;;;;;;;5.25;2.78;;;;;;;13.31;63.48;95073.25;5053001;28;20509;-76
2023/09/28 04:27:35;;;;;;;8.27;2.65;;;;;;;13.30;64.01;95082.88;5063775;28;20031;-75
2023/09/28 04:30:01;;;;;;;5.82;2.40;;;;;;;13.36;63.60;95090.13;5070515;28;20036;-74
2023/09/28 04:32:27;;;;;;;7.57;2.83;;;;;;;13.32;63.64;95087.97;5089028;28;20012;-73
2023/09/28 04:34:52;;;;;;;4.82;2.47;;;;;;;13.41;63.23;95085.34;5067553;28;20032;-72
2023/09/28 04:37:18;;;;;;;5.70;2.47;;;;;;;13.21;63.29;95056.75;5072529;28;20501;-71
2023/09/28 04:39:44;;;;;;;5.55;2.40;;;;;;;13.48;62.96;95092.59;5075008;28;20082;-71
2023/09/28 04:42:09;;;;;;;5.72;2.67;;;;;;;13.43;63.19;95090.44;5081046;28;20478;-72
2023/09/28 04:44:53;;;;;;;6.30;2.63;;;;;;;13.45;63.27;95087.66;5078869;28;20044;-71
2023/09/28 04:47:19;;;;;;;5.40;2.53;;;;;;;13.47;63.16;95101.41;5082376;28;20410;-72
2023/09/28 04:50:04;;;;;;;5.47;2.35;;;;;;;13.52;64.23;95104.44;5078672;28;20043;-70
2023/09/28 04:52:29;;;;;;;3.55;2.45;;;;;;;13.56;63.53;95106.63;5077502;28;20051;-71
2023/09/28 04:54:55;;;;;;;8.23;2.40;;;;;;;13.68;63.14;95104.72;5074834;28;20024;-74
2023/09/28 04:57:20;;;;;;;11.35;4.80;;;;;;;13.83;63.59;95103.28;5084134;28;20062;-72
2023/09/28 04:59:45;;;;;;;5.03;3.00;;;;;;;13.90;62.86;95108.81;5086714;28;20501;-72
2023/09/28 05:02:11;;;;;;;5.35;2.20;;;;;;;13.89;62.58;95107.13;5082153;28;20040;-73
2023/09/28 05:04:55;;;;;;;10.10;2.80;;;;;;;13.92;62.47;95109.47;5090070;28;20035;-73
2023/09/28 05:07:20;;;;;;;4.82;1.92;;;;;;;13.96;62.59;95107.41;5088697;28;20028;-73
2023/09/28 05:09:47;;;;;;;6.60;3.47;;;;;;;14.16;62.28;95103.78;5089268;28;20483;-73
2023/09/28 05:12:12;;;;;;;12.15;3.08;;;;;;;14.20;61.67;95112.97;5092320;28;20024;-73
2023/09/28 05:14:38;;;;;;;5.45;2.50;;;;;;;14.28;61.80;95107.88;5086092;28;20090;-72
2023/09/28 05:17:03;;;;;;;8.88;4.65;;;;;;;14.42;64.95;95121.44;5077256;28;20024;-72
2023/09/28 05:19:30;;;;;;;11.75;6.57;;;;;;;14.50;63.80;95116.31;5081494;28;20029;-72
2023/09/28 05:21:55;;;;;;;14.15;6.80;;;;;;;14.44;64.08;95125.56;5085071;28;20097;-73
2023/09/28 05:24:39;;;;;;;18.42;7.38;;;;;;;14.38;64.16;95128.75;5091187;28;20043;-73
2023/09/28 05:27:04;;;;;;;15.82;7.10;;;;;;;14.52;64.72;95124.88;5067734;28;20174;-72
2023/09/28 05:29:30;;;;;;;12.07;6.05;;;;;;;14.56;65.06;95126.22;5092413;28;20032;-72
2023/09/28 05:31:55;;;;;;;13.35;5.45;;;;;;;14.47;64.88;95117.44;5081465;28;20390;-72
2023/09/28 05:34:21;;;;;;;14.13;5.20;;;;;;;14.55;64.75;95135.06;5076488;28;20064;-73
2023/09/28 05:36:47;;;;;;;11.70;5.40;;;;;;;14.60;64.87;95137.22;5084899;28;20409;-73
2023/09/28 05:39:12;;;;;;;12.25;5.10;;;;;;;14.58;64.62;95121.69;5092327;28;20032;-72
2023/09/28 05:41:38;;;;;;;10.18;4.78;;;;;;;14.79;64.73;95133.69;5072410;28;20040;-72
2023/09/28 05:44:03;;;;;;;11.02;4.40;;;;;;;14.95;63.22;95129.47;5093699;28;20047;-73
2023/09/28 05:46:47;;;;;;;9.77;3.60;;;;;;;14.73;63.17;95101.94;5091418;28;20066;-73
2023/09/28 05:49:13;;;;;;;17.70;5.13;;;;;;;14.80;65.31;95127.53;5080907;28;20060;-69
2023/09/28 05:51:38;;;;;;;12.82;4.00;;;;;;;14.94;66.23;95116.56;5083850;28;20101;-71
2023/09/28 05:54:04;;;;;;;6.65;3.70;;;;;;;15.14;65.25;95125.94;5083340;28;20098;-71
2023/09/28 05:56:29;;;;;;;10.25;4.32;;;;;;;15.06;65.84;95109.34;5086834;28;20089;-72
2023/09/28 05:58:55;;;;;;;14.50;5.45;;;;;;;14.58;65.32;95119.06;5081176;28;20313;-73
2023/09/28 06:01:22;;;;;;;11.02;4.22;;;;;;;14.97;64.83;95126.75;5092661;28;20134;-72
2023/09/28 06:03:47;;;;;;;7.88;4.32;;;;;;;14.81;66.09;95129.16;5087715;28;20031;-71
2023/09/28 06:06:17;;;;;;;11.43;4.28;;;;;;;14.71;66.15;95114.34;5091512;28;20028;-71
2023/09/28 06:08:43;;;;;;;14.38;4.72;;;;;;;15.07;66.42;95124.91;5075195;28;20484;-72
2023/09/28 06:11:33;;;;;;;8.88;4.00;;;;;;;14.97;66.40;95129.34;5053802;28;20122;-71
2023/09/28 06:13:58;;;;;;;10.70;4.20;;;;;;;14.90;66.68;95126.47;5075567;28;20041;-72
2023/09/28 06:16:43;;;;;;;24.42;5.25;;;;;;;15.05;66.17;95126.00;5084341;28;20417;-72
2023/09/28 06:19:08;;;;;;;11.32;4.65;;;;;;;15.08;66.27;95118.69;5087982;28;20127;-71
2023/09/28 06:21:34;;;;;;;13.40;4.53;;;;;;;15.12;65.83;95133.09;5058103;28;20123;-71
2023/09/28 06:24:00;;;;;;;9.52;4.65;;;;;;;15.36;65.79;95136.97;5055480;28;20048;-72
2023/09/28 06:26:25;;;;;;;14.18;4.72;;;;;;;15.19;65.98;95094.91;5076100;28;20028;-72
2023/09/28 06:28:50;;;;;;;14.63;4.40;;;;;;;15.49;65.39;95129.56;5071433;28;20024;-72
2023/09/28 06:31:18;;;;;;;9.32;4.70;;;;;;;15.44;64.99;95123.97;5088658;28;20481;-72
2023/09/28 06:33:45;;;;;;;14.70;4.43;;;;;;;15.42;64.94;95118.84;5086308;28;20047;-72
2023/09/28 06:41:38;;;;;;;8.18;3.70;;;;;;;15.70;62.90;95104.91;5087106;28;20047;-72
2023/09/28 06:44:04;;;;;;;15.55;4.93;;;;;;;15.88;64.06;95133.69;5084286;28;20190;-72
2023/09/28 06:46:29;;;;;;;9.55;3.80;;;;;;;15.97;64.23;95133.59;5089309;28;20515;-73
2023/09/28 06:48:55;;;;;;;8.75;3.30;;;;;;;16.08;62.96;95140.41;5089701;28;20031;-72
2023/09/28 06:51:21;;;;;;;6.50;3.15;;;;;;;16.43;61.72;95147.34;5092641;28;20028;-71
2023/09/28 06:53:47;;;;;;;5.07;3.17;;;;;;;16.43;61.79;95133.41;5090946;28;20402;-72
2023/09/28 06:56:12;;;;;;;4.65;2.90;;;;;;;16.30;61.55;95139.06;5091729;28;20046;-72
2023/09/28 06:58:38;;;;;;;8.07;3.95;;;;;;;16.59;61.68;95151.03;5091762;28;20035;-72
2023/09/28 07:01:22;;;;;;;7.05;2.80;;;;;;;16.93;56.95;95161.56;5073573;28;20055;-71
2023/09/28 07:03:52;;;;;;;6.82;3.08;;;;;;;16.84;57.07;95147.59;5090838;28;20101;-72
2023/09/28 07:06:18;;;;;;;6.43;2.90;;;;;;;16.86;55.96;95155.31;5089477;28;20550;-72
2023/09/28 07:08:44;;;;;;;6.25;3.00;;;;;;;16.93;57.54;95159.75;5089262;28;20020;-71
2023/09/28 07:11:09;;;;;;;8.18;3.05;;;;;;;16.88;57.98;95150.72;5090426;28;20205;-72
2023/09/28 07:13:36;;;;;;;10.73;3.08;;;;;;;16.96;58.27;95151.56;5090521;28;20508;-72
2023/09/28 07:16:03;;;;;;;8.70;3.55;;;;;;;17.21;58.78;95154.28;5091044;28;20040;-73
2023/09/28 07:18:28;;;;;;;7.47;3.42;;;;;;;17.07;56.89;95157.50;5091401;28;20035;-72
2023/09/28 07:20:55;;;;;;;9.82;3.65;;;;;;;16.95;56.84;95152.53;5074361;28;20302;-72
2023/09/28 07:23:20;;;;;;;6.25;3.53;;;;;;;17.21;56.87;95156.91;5091307;28;20024;-72
2023/09/28 07:25:46;;;;;;;11.77;3.40;;;;;;;17.31;56.93;95164.66;5091371;28;20614;-74
2023/09/28 07:28:12;;;;;;;9.45;3.85;;;;;;;17.50;56.34;95161.75;5074248;28;20021;-75
2023/09/28 07:33:40;;;;;;;8.32;3.67;;;;;;;17.38;55.39;95150.75;5091534;28;20119;-75
2023/09/28 07:36:05;;;;;;;13.00;3.65;;;;;;;17.56;55.07;95160.28;5092623;28;20040;-74
2023/09/28 07:38:34;;;;;;;7.47;3.58;;;;;;;17.67;55.34;95151.28;5090965;28;20054;-75
2023/09/28 07:44:03;;;;;;;12.23;3.70;;;;;;;17.91;53.81;95151.31;5092049;28;20158;-75
2023/09/28 07:46:28;;;;;;;8.52;2.95;;;;;;;17.99;52.70;95150.50;5073849;28;20489;-75
2023/09/28 07:48:56;;;;;;;6.63;2.55;;;;;;;17.93;52.70;95123.06;5091945;28;20035;-75
2023/09/28 07:51:21;;;;;;;9.32;2.60;;;;;;;18.15;51.55;95150.50;5091770;28;20028;-74
2023/09/28 07:54:05;;;;;;;8.80;3.08;;;;;;;18.25;51.77;95147.69;5073614;28;20016;-74
2023/09/28 07:56:31;;;;;;;6.35;2.75;;;;;;;18.24;51.75;95136.34;5090822;28;20042;-75
2023/09/28 07:59:34;;;;;;;9.40;3.00;;;;;;;18.50;51.36;95151.94;5091710;28;20028;-74
2023/09/28 08:02:00;;;;;;;6.70;2.67;;;;;;;18.55;50.85;95143.50;5090411;28;20050;-75
2023/09/28 08:04:25;;;;;;;13.52;2.97;;;;;;;18.56;50.38;95129.41;5091887;28;20074;-75
2023/09/28 08:06:51;;;;;;;7.70;2.65;;;;;;;18.85;50.13;95154.34;5090506;28;20028;-75
2023/09/28 08:09:19;;;;;;;7.20;2.55;;;;;;;18.81;50.22;95153.84;5073571;28;20032;-75
2023/09/28 08:11:46;;;;;;;9.50;2.50;;;;;;;18.98;49.93;95138.81;5073648;28;20036;-75
2023/09/28 08:14:15;;;;;;;8.10;2.63;;;;;;;19.15;49.78;95145.66;5056729;28;20035;-75
2023/09/28 08:16:44;;;;;;;8.02;2.75;;;;;;;19.18;49.62;95144.50;5073835;28;20028;-74
2023/09/28 08:19:09;;;;;;;7.25;2.88;;;;;;;19.49;48.82;95139.22;5091336;28;20031;-75
2023/09/28 08:21:37;;;;;;;7.57;2.92;;;;;;;19.36;50.35;95136.31;5073308;28;20036;-75
2023/09/28 08:24:03;;;;;;;6.22;2.90;;;;;;;19.61;50.33;95144.91;5057058;28;20401;-75
2023/09/28 08:26:28;;;;;;;6.70;2.80;;;;;;;19.57;49.44;95141.00;5073215;28;20092;-75
2023/09/28 08:29:15;;;;;;;4.15;2.38;;;;;;;19.52;48.94;95146.78;5089971;28;20036;-75
2023/09/28 08:31:40;;;;;;;5.85;2.47;;;;;;;19.63;48.32;95149.00;5091156;28;20113;-75
2023/09/28 08:34:08;;;;;;;8.35;2.70;;;;;;;19.62;47.77;95142.09;5091188;28;20462;-75
2023/09/28 08:36:33;;;;;;;5.00;2.50;;;;;;;19.71;47.91;95135.00;5091170;28;20490;-75
2023/09/28 08:38:59;;;;;;;8.43;2.40;;;;;;;19.54;46.96;95092.09;5091332;28;20034;-75
2023/09/28 08:41:44;;;;;;;4.65;2.47;;;;;;;19.76;47.69;95135.28;5089561;28;20414;-75
2023/09/28 08:44:28;;;;;;;10.13;2.65;;;;;;;19.76;47.98;95131.84;5073557;28;20028;-74
2023/09/28 08:46:57;;;;;;;8.35;2.65;;;;;;;20.02;47.60;95127.00;5090061;28;20077;-74
2023/09/28 08:49:23;;;;;;;8.68;2.70;;;;;;;20.35;47.07;95124.09;5089699;28;20034;-74
2023/09/28 08:51:50;;;;;;;6.20;2.25;;;;;;;20.48;47.14;95121.66;5089769;28;20040;-75
2023/09/28 08:57:00;;;;;;;5.05;2.30;;;;;;;20.88;45.45;95110.84;5089934;28;20058;-75
2023/09/28 08:59:28;;;;;;;4.63;2.30;;;;;;;20.87;44.39;95103.94;5090804;28;20024;-74
2023/09/28 09:01:55;;;;;;;4.05;2.22;;;;;;;21.05;44.02;95117.56;5073700;28;20101;-74
2023/09/28 09:04:20;;;;;;;5.15;2.53;;;;;;;20.74;44.61;95112.50;5089671;28;20447;-74
2023/09/28 09:06:47;;;;;;;3.75;2.25;;;;;;;21.02;44.54;95117.13;5090943;28;20028;-75
2023/09/28 09:09:15;;;;;;;6.03;2.42;;;;;;;20.88;43.76;95116.94;5089550;28;20149;-74
2023/09/28 09:11:44;;;;;;;7.75;2.58;;;;;;;20.85;43.09;95085.63;5073114;28;20071;-73
2023/09/28 09:14:11;;;;;;;3.13;2.20;;;;;;;21.14;44.32;95105.06;5073000;28;20103;-74
2023/09/28 09:19:21;;;;;;;4.28;2.50;;;;;;;21.17;43.48;95107.34;5090884;28;20028;-74
2023/09/28 09:22:05;;;;;;;7.15;2.30;;;;;;;21.16;44.34;95101.25;5088486;28;20028;-74
2023/09/28 09:24:30;;;;;;;4.85;2.42;;;;;;;21.38;43.23;95106.59;5088709;28;20513;-74
2023/09/28 09:26:58;;;;;;;6.82;2.20;;;;;;;21.38;44.06;95102.13;5071782;28;20036;-74
2023/09/28 09:29:24;;;;;;;3.95;2.25;;;;;;;21.60;43.27;95100.34;5088727;28;20032;-75
2023/09/28 09:31:49;;;;;;;8.85;2.50;;;;;;;21.36;43.07;95088.25;5088389;28;20040;-75
2023/09/28 09:36:59;;;;;;;5.80;2.22;;;;;;;21.28;43.22;95106.03;5090016;28;20079;-74
2023/09/28 09:39:25;;;;;;;5.50;2.35;;;;;;;21.61;42.98;95103.78;5090603;28;20028;-74
2023/09/28 09:41:52;;;;;;;5.70;2.67;;;;;;;21.52;42.92;95102.28;5072570;28;20085;-74
2023/09/28 09:44:21;;;;;;;10.45;3.20;;;;;;;21.28;42.79;95096.28;5089303;28;20024;-74
2023/09/28 09:46:48;;;;;;;6.47;2.58;;;;;;;21.42;43.31;95095.50;5090512;28;20043;-75
2023/09/28 09:49:18;;;;;;;6.68;2.50;;;;;;;21.68;43.30;95090.66;5089210;28;20025;-75
2023/09/28 09:51:45;;;;;;;6.35;2.40;;;;;;;21.63;42.76;95073.53;5072476;28;20043;-74
2023/09/28 09:54:29;;;;;;;4.90;2.30;;;;;;;21.90;42.51;95089.63;5091474;28;20025;-74
2023/09/28 09:59:39;;;;;;;6.38;2.35;;;;;;;21.48;43.80;95080.72;5078570;28;20512;-74
2023/09/28 10:02:05;;;;;;;8.57;2.25;;;;;;;21.62;43.95;95081.66;5075966;28;20425;-74
2023/09/28 10:07:33;;;;;;;4.93;2.20;;;;;;;22.06;46.08;95077.94;5093992;28;20043;-74
2023/09/28 10:09:59;;;;;;;4.40;2.33;;;;;;;21.64;43.44;95063.75;5094065;28;20032;-75
2023/09/28 10:12:44;;;;;;;6.85;2.58;;;;;;;21.73;43.20;95073.22;5059062;28;20043;-74
2023/09/28 10:18:12;;;;;;;5.35;2.53;;;;;;;21.54;43.55;95074.66;5092815;28;20047;-74
2023/09/28 10:20:38;;;;;;;6.57;2.47;;;;;;;21.65;43.41;95062.78;5092656;28;20031;-74
2023/09/28 10:23:23;;;;;;;4.57;2.30;;;;;;;21.66;43.07;95061.75;5058817;28;20036;-73
2023/09/28 10:29:04;;;;;;;3.45;2.10;;;;;;;21.90;44.30;95065.00;5092483;28;20085;-73
2023/09/28 10:31:51;;;;;;;4.65;2.30;;;;;;;21.74;43.83;95063.47;5092184;28;20073;-73
2023/09/28 10:34:35;;;;;;;3.88;2.35;;;;;;;21.63;44.22;95067.41;5093526;28;20031;-74
2023/09/28 10:37:27;;;;;;;5.85;2.63;;;;;;;21.47;45.05;95068.47;5093372;28;20108;-74
2023/09/28 10:39:54;;;;;;;7.75;2.80;;;;;;;21.59;45.31;95063.50;5093500;28;20435;-73
2023/09/28 10:42:38;;;;;;;4.30;2.60;;;;;;;21.67;44.93;95058.09;5075100;28;20501;-73
2023/09/28 10:48:08;;;;;;;7.25;2.90;;;;;;;21.69;45.22;95065.84;5092516;28;20093;-74
2023/09/28 10:50:38;;;;;;;5.80;2.65;;;;;;;21.64;45.30;95058.47;5091915;28;20023;-74
2023/09/28 10:53:03;;;;;;;7.55;2.72;;;;;;;21.70;45.18;95054.25;5058475;28;20090;-74
2023/09/28 10:58:33;;;;;;;3.78;2.30;;;;;;;22.04;45.17;95054.34;5092037;28;20110;-75
2023/09/28 11:01:04;;;;;;;6.47;2.70;;;;;;;21.96;46.10;95051.03;5091534;28;20317;-75
2023/09/28 11:04:07;;;;;;;8.50;2.88;;;;;;;21.89;44.35;95047.50;5075733;28;20158;-75
2023/09/28 11:06:33;;;;;;;6.78;2.75;;;;;;;22.08;45.29;95042.38;5092892;28;20040;-75
2023/09/28 11:09:01;;;;;;;5.85;2.60;;;;;;;22.09;45.08;95041.38;5091490;28;20382;-75
2023/09/28 11:14:11;;;;;;;10.10;3.00;;;;;;;22.21;44.25;95043.50;5077364;28;20120;-75
2023/09/28 11:16:38;;;;;;;8.90;2.80;;;;;;;22.38;44.27;95042.19;5074671;28;20032;-75
2023/09/28 11:19:04;;;;;;;6.68;2.30;;;;;;;22.54;43.20;95038.44;5074748;28;20107;-75
2023/09/28 11:21:30;;;;;;;6.55;2.70;;;;;;;22.43;43.84;95041.63;5091345;28;20099;-75
2023/09/28 11:23:56;;;;;;;5.72;2.67;;;;;;;22.31;43.55;95036.03;5091577;28;20028;-75
2023/09/28 11:26:22;;;;;;;6.30;2.78;;;;;;;22.30;43.58;95032.56;5092397;28;20032;-75
2023/09/28 11:31:35;;;;;;;9.52;2.80;;;;;;;22.36;43.57;95038.91;5077042;28;20070;-75
2023/09/28 11:34:01;;;;;;;5.30;2.53;;;;;;;22.52;44.27;95035.97;5092271;28;20032;-75
2023/09/28 11:36:45;;;;;;;8.43;3.90;;;;;;;22.43;44.33;95039.78;5091087;28;20043;-74
2023/09/28 11:39:11;;;;;;;7.50;2.78;;;;;;;22.44;44.18;95036.13;5091167;28;20505;-75
2023/09/28 11:41:54;;;;;;;5.80;2.88;;;;;;;22.61;43.82;95027.84;5074116;28;20036;-74
2023/09/28 11:44:20;;;;;;;4.10;2.67;;;;;;;22.39;43.19;95029.78;5074044;28;20035;-75
2023/09/28 11:52:32;;;;;;;6.28;2.60;;;;;;;23.04;43.31;95041.72;5090860;28;20047;-75
2023/09/28 11:54:57;;;;;;;7.85;2.40;;;;;;;23.00;42.65;95029.88;5090732;28;20020;-75
2023/09/28 11:57:22;;;;;;;5.35;2.42;;;;;;;23.12;41.60;95022.16;5090681;28;20401;-75
2023/09/28 11:59:48;;;;;;;5.75;3.08;;;;;;;22.86;41.86;95041.41;5091742;28;20048;-75
2023/09/28 12:02:32;;;;;;;5.90;2.42;;;;;;;22.66;41.46;95036.84;5090589;28;20032;-75
2023/09/28 12:04:57;;;;;;;5.80;2.35;;;;;;;22.52;41.63;95024.56;5090728;28;20032;-75
2023/09/28 12:07:23;;;;;;;5.35;2.90;;;;;;;22.57;41.50;95047.81;5073631;28;20040;-75
2023/09/28 12:09:48;;;;;;;4.75;2.60;;;;;;;22.52;41.13;95040.44;5090316;28;20514;-75
2023/09/28 12:12:14;;;;;;;6.72;2.70;;;;;;;22.51;41.54;95044.09;5090278;28;20039;-75
2023/09/28 12:14:40;;;;;;;8.02;2.60;;;;;;;22.28;41.21;95037.22;5091699;28;20031;-75
2023/09/28 12:17:05;;;;;;;5.50;2.47;;;;;;;22.24;41.25;95033.34;5072851;28;20024;-75
2023/09/28 12:19:31;;;;;;;5.03;2.65;;;;;;;22.55;42.18;95018.88;5090353;28;20031;-75
2023/09/28 12:22:15;;;;;;;6.05;2.30;;;;;;;22.71;41.41;95028.31;5089432;28;20032;-74
2023/09/28 12:24:41;;;;;;;5.97;2.60;;;;;;;22.96;41.66;95026.00;5091030;28;20032;-75
2023/09/28 12:27:25;;;;;;;5.65;2.58;;;;;;;23.06;40.29;95025.63;5091055;28;20104;-75
2023/09/28 12:30:09;;;;;;;4.32;2.10;;;;;;;23.12;40.46;95030.97;5091490;28;20028;-75
2023/09/28 12:32:54;;;;;;;6.45;2.42;;;;;;;23.12;39.66;95027.47;5089200;28;20082;-75
2023/09/28 12:35:39;;;;;;;6.13;2.45;;;;;;;23.26;39.15;95012.41;5091146;28;20033;-75
2023/09/28 12:38:23;;;;;;;3.75;2.30;;;;;;;22.76;40.90;95020.59;5091205;28;20390;-75
2023/09/28 12:43:51;;;;;;;4.63;2.28;;;;;;;22.93;41.53;95021.09;5091351;28;20089;-75
2023/09/28 12:46:17;;;;;;;9.32;2.55;;;;;;;22.85;42.80;95010.66;5091049;28;20036;-75
2023/09/28 12:48:43;;;;;;;8.75;2.50;;;;;;;23.01;40.80;95022.75;5091014;28;20043;-75
2023/09/28 12:51:08;;;;;;;7.75;2.80;;;;;;;23.05;40.73;95024.00;5089659;28;20028;-74
2023/09/28 12:53:34;;;;;;;5.05;2.70;;;;;;;22.79;41.25;95020.22;5089841;28;20028;-74
2023/09/28 12:56:00;;;;;;;7.22;2.78;;;;;;;22.66;41.50;95028.09;5091378;28;20442;-74
2023/09/28 13:01:10;;;;;;;5.00;2.70;;;;;;;22.60;41.86;95015.66;5089775;28;20117;-74
2023/09/28 13:03:39;;;;;;;6.50;2.80;;;;;;;22.56;41.86;95017.84;5090934;28;20020;-75
2023/09/28 13:06:04;;;;;;;4.65;3.15;;;;;;;22.49;42.14;95028.41;5089743;28;20039;-74
2023/09/28 13:08:31;;;;;;;5.30;2.90;;;;;;;22.58;41.86;95029.06;5090962;28;20032;-74
2023/09/28 13:10:56;;;;;;;5.07;2.83;;;;;;;22.36;41.73;95030.97;5089685;28;20028;-75